sensor_id;sensor_type;location;lat;lon;timestamp;P1;durP1;ratioP1;P2;durP2;ratioP2
41043;SDS011;51680;49.806;18.774;2024-03-06T00:01:22;67.25;;;37.38;;
41043;SDS011;51680;49.806;18.774;2024-03-06T00:04:24;70.30;;;37.28;;
41043;SDS011;51680;49.806;18.774;2024-03-06T00:07:26;68.63;;;36.72;;
41043;SDS011;51680;49.806;18.774;2024-03-06T00:10:28;69.65;;;36.60;;
41043;SDS011;51680;49.806;18.774;2024-03-06T00:13:31;71.78;;;36.22;;
41043;SDS011;51680;49.806;18.774;2024-03-06T00:16:33;68.20;;;37.75;;
41043;SDS011;51680;49.806;18.774;2024-03-06T00:19:35;68.28;;;36.92;;
41043;SDS011;51680;49.806;18.774;2024-03-06T00:22:36;68.55;;;36.05;;
41043;SDS011;51680;49.806;18.774;2024-03-06T00:25:38;67.00;;;36.22;;
41043;SDS011;51680;49.806;18.774;2024-03-06T00:28:41;66.78;;;36.42;;
41043;SDS011;51680;49.806;18.774;2024-03-06T00:31:43;70.40;;;36.70;;
41043;SDS011;51680;49.806;18.774;2024-03-06T00:34:46;65.25;;;35.78;;
41043;SDS011;51680;49.806;18.774;2024-03-06T00:37:48;71.07;;;38.17;;
41043;SDS011;51680;49.806;18.774;2024-03-06T00:40:50;69.70;;;37.80;;
41043;SDS011;51680;49.806;18.774;2024-03-06T00:43:53;70.15;;;39.92;;
41043;SDS011;51680;49.806;18.774;2024-03-06T00:46:55;68.35;;;38.55;;
41043;SDS011;51680;49.806;18.774;2024-03-06T00:49:57;74.10;;;39.38;;
41043;SDS011;51680;49.806;18.774;2024-03-06T00:52:59;77.50;;;37.70;;
41043;SDS011;51680;49.806;18.774;2024-03-06T00:56:01;72.22;;;39.47;;
41043;SDS011;51680;49.806;18.774;2024-03-06T00:59:05;73.78;;;39.60;;
41043;SDS011;51680;49.806;18.774;2024-03-06T01:02:06;73.20;;;38.95;;
41043;SDS011;51680;49.806;18.774;2024-03-06T01:05:08;71.93;;;38.90;;
41043;SDS011;51680;49.806;18.774;2024-03-06T01:08:10;71.35;;;37.72;;
41043;SDS011;51680;49.806;18.774;2024-03-06T01:11:12;55.30;;;26.83;;
41043;SDS011;51680;49.806;18.774;2024-03-06T01:14:16;66.55;;;35.65;;
41043;SDS011;51680;49.806;18.774;2024-03-06T01:17:18;65.57;;;35.78;;
41043;SDS011;51680;49.806;18.774;2024-03-06T01:20:20;66.63;;;34.10;;
41043;SDS011;51680;49.806;18.774;2024-03-06T01:23:21;59.50;;;32.97;;
41043;SDS011;51680;49.806;18.774;2024-03-06T01:26:23;61.05;;;32.13;;
41043;SDS011;51680;49.806;18.774;2024-03-06T01:29:26;62.08;;;33.30;;
41043;SDS011;51680;49.806;18.774;2024-03-06T01:32:28;62.95;;;34.45;;
41043;SDS011;51680;49.806;18.774;2024-03-06T01:35:30;62.67;;;33.95;;
41043;SDS011;51680;49.806;18.774;2024-03-06T01:38:32;56.22;;;32.72;;
41043;SDS011;51680;49.806;18.774;2024-03-06T01:41:34;62.80;;;32.95;;
41043;SDS011;51680;49.806;18.774;2024-03-06T01:44:37;56.38;;;30.95;;
41043;SDS011;51680;49.806;18.774;2024-03-06T01:47:39;59.83;;;32.60;;
41043;SDS011;51680;49.806;18.774;2024-03-06T01:50:41;65.22;;;33.53;;
41043;SDS011;51680;49.806;18.774;2024-03-06T01:53:43;56.90;;;32.00;;
41043;SDS011;51680;49.806;18.774;2024-03-06T01:56:45;60.13;;;33.17;;
41043;SDS011;51680;49.806;18.774;2024-03-06T01:59:50;58.92;;;32.20;;
41043;SDS011;51680;49.806;18.774;2024-03-06T02:02:52;58.72;;;31.70;;
41043;SDS011;51680;49.806;18.774;2024-03-06T02:05:54;59.22;;;31.33;;
41043;SDS011;51680;49.806;18.774;2024-03-06T02:12:00;54.08;;;30.10;;
41043;SDS011;51680;49.806;18.774;2024-03-06T02:15:03;55.35;;;30.00;;
41043;SDS011;51680;49.806;18.774;2024-03-06T02:18:06;57.13;;;30.42;;
41043;SDS011;51680;49.806;18.774;2024-03-06T02:21:10;57.90;;;30.08;;
41043;SDS011;51680;49.806;18.774;2024-03-06T02:24:12;59.33;;;30.35;;
41043;SDS011;51680;49.806;18.774;2024-03-06T02:27:15;57.03;;;29.60;;
41043;SDS011;51680;49.806;18.774;2024-03-06T02:30:19;50.15;;;23.42;;
41043;SDS011;51680;49.806;18.774;2024-03-06T02:33:21;53.42;;;28.45;;
41043;SDS011;51680;49.806;18.774;2024-03-06T02:36:25;56.30;;;28.98;;
41043;SDS011;51680;49.806;18.774;2024-03-06T02:39:27;60.95;;;32.17;;
41043;SDS011;51680;49.806;18.774;2024-03-06T02:42:28;60.70;;;31.10;;
41043;SDS011;51680;49.806;18.774;2024-03-06T02:45:30;59.25;;;29.98;;
41043;SDS011;51680;49.806;18.774;2024-03-06T02:48:32;57.45;;;30.98;;
41043;SDS011;51680;49.806;18.774;2024-03-06T02:51:36;58.05;;;32.10;;
41043;SDS011;51680;49.806;18.774;2024-03-06T02:54:37;60.92;;;29.60;;
41043;SDS011;51680;49.806;18.774;2024-03-06T02:57:42;60.17;;;31.20;;
41043;SDS011;51680;49.806;18.774;2024-03-06T03:00:44;59.72;;;31.95;;
41043;SDS011;51680;49.806;18.774;2024-03-06T03:03:46;56.60;;;31.13;;
41043;SDS011;51680;49.806;18.774;2024-03-06T03:06:49;59.75;;;32.58;;
41043;SDS011;51680;49.806;18.774;2024-03-06T03:09:51;59.22;;;32.08;;
41043;SDS011;51680;49.806;18.774;2024-03-06T03:12:53;60.40;;;33.45;;
41043;SDS011;51680;49.806;18.774;2024-03-06T03:15:55;63.28;;;32.85;;
41043;SDS011;51680;49.806;18.774;2024-03-06T03:18:57;64.85;;;32.70;;
41043;SDS011;51680;49.806;18.774;2024-03-06T03:22:00;62.75;;;31.08;;
41043;SDS011;51680;49.806;18.774;2024-03-06T03:25:06;61.78;;;32.47;;
41043;SDS011;51680;49.806;18.774;2024-03-06T03:28:08;61.20;;;33.53;;
41043;SDS011;51680;49.806;18.774;2024-03-06T03:31:10;59.03;;;31.88;;
41043;SDS011;51680;49.806;18.774;2024-03-06T03:34:12;54.67;;;29.95;;
41043;SDS011;51680;49.806;18.774;2024-03-06T03:37:16;63.75;;;30.08;;
41043;SDS011;51680;49.806;18.774;2024-03-06T03:40:18;60.45;;;30.27;;
41043;SDS011;51680;49.806;18.774;2024-03-06T03:43:20;58.90;;;31.98;;
41043;SDS011;51680;49.806;18.774;2024-03-06T03:46:22;57.10;;;32.08;;
41043;SDS011;51680;49.806;18.774;2024-03-06T03:49:24;59.72;;;31.15;;
41043;SDS011;51680;49.806;18.774;2024-03-06T03:52:28;59.90;;;31.50;;
41043;SDS011;51680;49.806;18.774;2024-03-06T03:55:31;58.25;;;31.25;;
41043;SDS011;51680;49.806;18.774;2024-03-06T03:58:32;57.47;;;31.48;;
41043;SDS011;51680;49.806;18.774;2024-03-06T04:01:34;58.53;;;32.33;;
41043;SDS011;51680;49.806;18.774;2024-03-06T04:04:36;54.55;;;30.73;;
41043;SDS011;51680;49.806;18.774;2024-03-06T04:07:40;54.88;;;30.73;;
41043;SDS011;51680;49.806;18.774;2024-03-06T04:10:42;58.88;;;33.55;;
41043;SDS011;51680;49.806;18.774;2024-03-06T04:13:45;63.03;;;32.47;;
41043;SDS011;51680;49.806;18.774;2024-03-06T04:16:47;60.15;;;32.38;;
41043;SDS011;51680;49.806;18.774;2024-03-06T04:19:49;58.05;;;31.33;;
41043;SDS011;51680;49.806;18.774;2024-03-06T04:22:52;60.25;;;33.30;;
41043;SDS011;51680;49.806;18.774;2024-03-06T04:25:55;57.53;;;32.92;;
41043;SDS011;51680;49.806;18.774;2024-03-06T04:28:56;63.90;;;33.75;;
41043;SDS011;51680;49.806;18.774;2024-03-06T04:31:58;65.93;;;35.53;;
41043;SDS011;51680;49.806;18.774;2024-03-06T04:35:00;65.32;;;34.58;;
41043;SDS011;51680;49.806;18.774;2024-03-06T04:38:03;68.78;;;35.22;;
41043;SDS011;51680;49.806;18.774;2024-03-06T04:41:06;66.65;;;36.20;;
41043;SDS011;51680;49.806;18.774;2024-03-06T04:44:08;81.68;;;34.35;;
41043;SDS011;51680;49.806;18.774;2024-03-06T04:47:10;240.55;;;38.15;;
41043;SDS011;51680;49.806;18.774;2024-03-06T04:50:12;214.98;;;34.97;;
41043;SDS011;51680;49.806;18.774;2024-03-06T04:53:17;205.30;;;34.75;;
41043;SDS011;51680;49.806;18.774;2024-03-06T04:56:20;135.20;;;33.20;;
41043;SDS011;51680;49.806;18.774;2024-03-06T04:59:22;273.05;;;34.55;;
41043;SDS011;51680;49.806;18.774;2024-03-06T05:02:24;111.43;;;34.65;;
41043;SDS011;51680;49.806;18.774;2024-03-06T05:05:26;228.70;;;36.30;;
41043;SDS011;51680;49.806;18.774;2024-03-06T05:08:29;118.38;;;37.53;;
41043;SDS011;51680;49.806;18.774;2024-03-06T05:11:31;71.30;;;36.65;;
41043;SDS011;51680;49.806;18.774;2024-03-06T05:14:33;70.30;;;35.90;;
41043;SDS011;51680;49.806;18.774;2024-03-06T05:17:36;69.82;;;35.03;;
41043;SDS011;51680;49.806;18.774;2024-03-06T05:20:38;58.13;;;31.88;;
41043;SDS011;51680;49.806;18.774;2024-03-06T05:23:41;56.15;;;32.17;;
41043;SDS011;51680;49.806;18.774;2024-03-06T05:26:43;61.63;;;33.33;;
41043;SDS011;51680;49.806;18.774;2024-03-06T05:29:45;107.18;;;38.38;;
41043;SDS011;51680;49.806;18.774;2024-03-06T05:32:46;538.83;;;43.28;;
41043;SDS011;51680;49.806;18.774;2024-03-06T05:35:48;345.33;;;37.60;;
41043;SDS011;51680;49.806;18.774;2024-03-06T05:38:52;98.43;;;32.67;;
41043;SDS011;51680;49.806;18.774;2024-03-06T05:41:54;249.30;;;34.05;;
41043;SDS011;51680;49.806;18.774;2024-03-06T05:44:56;136.55;;;31.58;;
41043;SDS011;51680;49.806;18.774;2024-03-06T05:48:05;249.38;;;32.50;;
41043;SDS011;51680;49.806;18.774;2024-03-06T05:51:08;232.48;;;30.13;;
41043;SDS011;51680;49.806;18.774;2024-03-06T05:54:11;73.15;;;26.25;;
41043;SDS011;51680;49.806;18.774;2024-03-06T05:57:13;62.67;;;26.02;;
41043;SDS011;51680;49.806;18.774;2024-03-06T06:00:16;54.72;;;26.02;;
41043;SDS011;51680;49.806;18.774;2024-03-06T06:03:18;57.40;;;26.65;;
41043;SDS011;51680;49.806;18.774;2024-03-06T06:06:20;48.15;;;25.63;;
41043;SDS011;51680;49.806;18.774;2024-03-06T06:09:23;44.92;;;24.90;;
41043;SDS011;51680;49.806;18.774;2024-03-06T06:12:25;47.78;;;25.85;;
41043;SDS011;51680;49.806;18.774;2024-03-06T06:15:27;49.58;;;26.17;;
41043;SDS011;51680;49.806;18.774;2024-03-06T06:18:28;53.78;;;26.95;;
41043;SDS011;51680;49.806;18.774;2024-03-06T06:21:32;49.25;;;25.70;;
41043;SDS011;51680;49.806;18.774;2024-03-06T06:27:39;45.47;;;24.42;;
41043;SDS011;51680;49.806;18.774;2024-03-06T06:30:40;45.28;;;24.10;;
41043;SDS011;51680;49.806;18.774;2024-03-06T06:33:42;46.20;;;24.10;;
41043;SDS011;51680;49.806;18.774;2024-03-06T06:36:46;41.10;;;22.23;;
41043;SDS011;51680;49.806;18.774;2024-03-06T06:39:49;42.90;;;22.67;;
41043;SDS011;51680;49.806;18.774;2024-03-06T06:42:51;45.97;;;25.98;;
41043;SDS011;51680;49.806;18.774;2024-03-06T06:45:53;43.30;;;24.85;;
41043;SDS011;51680;49.806;18.774;2024-03-06T06:48:54;50.03;;;25.88;;
41043;SDS011;51680;49.806;18.774;2024-03-06T06:51:56;45.90;;;26.00;;
41043;SDS011;51680;49.806;18.774;2024-03-06T06:55:00;50.92;;;25.92;;
41043;SDS011;51680;49.806;18.774;2024-03-06T06:58:01;72.30;;;27.60;;
41043;SDS011;51680;49.806;18.774;2024-03-06T07:01:04;65.60;;;32.65;;
41043;SDS011;51680;49.806;18.774;2024-03-06T07:04:06;57.65;;;32.45;;
41043;SDS011;51680;49.806;18.774;2024-03-06T07:07:08;129.30;;;34.55;;
41043;SDS011;51680;49.806;18.774;2024-03-06T07:10:11;236.05;;;34.78;;
41043;SDS011;51680;49.806;18.774;2024-03-06T07:13:14;164.75;;;31.20;;
41043;SDS011;51680;49.806;18.774;2024-03-06T07:16:18;223.93;;;30.20;;
41043;SDS011;51680;49.806;18.774;2024-03-06T07:19:20;417.98;;;32.17;;
41043;SDS011;51680;49.806;18.774;2024-03-06T07:22:22;449.05;;;31.77;;
41043;SDS011;51680;49.806;18.774;2024-03-06T07:25:25;252.60;;;30.05;;
41043;SDS011;51680;49.806;18.774;2024-03-06T07:28:27;420.70;;;32.30;;
41043;SDS011;51680;49.806;18.774;2024-03-06T07:31:29;449.60;;;32.42;;
41043;SDS011;51680;49.806;18.774;2024-03-06T07:34:32;321.95;;;31.30;;
41043;SDS011;51680;49.806;18.774;2024-03-06T07:37:34;432.13;;;31.98;;
41043;SDS011;51680;49.806;18.774;2024-03-06T07:40:37;395.35;;;31.98;;
41043;SDS011;51680;49.806;18.774;2024-03-06T07:43:39;299.02;;;29.42;;
41043;SDS011;51680;49.806;18.774;2024-03-06T07:46:41;269.55;;;28.23;;
41043;SDS011;51680;49.806;18.774;2024-03-06T07:49:43;252.45;;;28.67;;
41043;SDS011;51680;49.806;18.774;2024-03-06T07:52:45;345.48;;;29.00;;
41043;SDS011;51680;49.806;18.774;2024-03-06T07:55:49;284.30;;;27.00;;
41043;SDS011;51680;49.806;18.774;2024-03-06T07:58:51;96.47;;;22.88;;
41043;SDS011;51680;49.806;18.774;2024-03-06T08:01:53;324.60;;;26.80;;
41043;SDS011;51680;49.806;18.774;2024-03-06T08:04:56;228.77;;;25.08;;
41043;SDS011;51680;49.806;18.774;2024-03-06T08:07:58;157.32;;;22.73;;
41043;SDS011;51680;49.806;18.774;2024-03-06T08:11:01;242.90;;;24.05;;
41043;SDS011;51680;49.806;18.774;2024-03-06T08:14:03;295.38;;;25.02;;
41043;SDS011;51680;49.806;18.774;2024-03-06T08:17:07;367.50;;;26.42;;
41043;SDS011;51680;49.806;18.774;2024-03-06T08:20:09;298.10;;;24.75;;
41043;SDS011;51680;49.806;18.774;2024-03-06T08:23:12;168.70;;;23.17;;
41043;SDS011;51680;49.806;18.774;2024-03-06T08:26:15;314.27;;;26.60;;
41043;SDS011;51680;49.806;18.774;2024-03-06T08:29:17;267.77;;;24.70;;
41043;SDS011;51680;49.806;18.774;2024-03-06T08:32:19;138.77;;;23.85;;
41043;SDS011;51680;49.806;18.774;2024-03-06T08:35:21;168.10;;;23.98;;
41043;SDS011;51680;49.806;18.774;2024-03-06T08:38:24;218.43;;;25.53;;
41043;SDS011;51680;49.806;18.774;2024-03-06T08:41:27;138.05;;;26.30;;
41043;SDS011;51680;49.806;18.774;2024-03-06T08:44:29;180.55;;;26.08;;
41043;SDS011;51680;49.806;18.774;2024-03-06T08:47:30;166.75;;;26.92;;
41043;SDS011;51680;49.806;18.774;2024-03-06T08:50:32;218.57;;;27.90;;
41043;SDS011;51680;49.806;18.774;2024-03-06T08:53:34;92.07;;;26.58;;
41043;SDS011;51680;49.806;18.774;2024-03-06T08:56:38;115.00;;;26.58;;
41043;SDS011;51680;49.806;18.774;2024-03-06T08:59:40;54.45;;;27.23;;
41043;SDS011;51680;49.806;18.774;2024-03-06T09:02:42;82.40;;;26.23;;
41043;SDS011;51680;49.806;18.774;2024-03-06T09:05:44;112.30;;;27.02;;
41043;SDS011;51680;49.806;18.774;2024-03-06T09:08:46;69.35;;;28.75;;
41043;SDS011;51680;49.806;18.774;2024-03-06T09:11:50;95.78;;;28.35;;
41043;SDS011;51680;49.806;18.774;2024-03-06T09:14:52;49.75;;;25.60;;
41043;SDS011;51680;49.806;18.774;2024-03-06T09:17:54;53.05;;;27.48;;
41043;SDS011;51680;49.806;18.774;2024-03-06T09:20:56;52.90;;;27.55;;
41043;SDS011;51680;49.806;18.774;2024-03-06T09:23:57;54.38;;;27.33;;
41043;SDS011;51680;49.806;18.774;2024-03-06T09:27:01;59.35;;;28.17;;
41043;SDS011;51680;49.806;18.774;2024-03-06T09:30:21;52.50;;;28.02;;
41043;SDS011;51680;49.806;18.774;2024-03-06T09:33:23;47.08;;;25.38;;
41043;SDS011;51680;49.806;18.774;2024-03-06T09:36:25;45.55;;;24.98;;
41043;SDS011;51680;49.806;18.774;2024-03-06T09:39:27;49.33;;;26.80;;
41043;SDS011;51680;49.806;18.774;2024-03-06T09:42:30;47.22;;;26.00;;
41043;SDS011;51680;49.806;18.774;2024-03-06T09:45:32;49.83;;;26.45;;
41043;SDS011;51680;49.806;18.774;2024-03-06T09:48:34;48.05;;;26.63;;
41043;SDS011;51680;49.806;18.774;2024-03-06T09:51:36;48.03;;;27.40;;
41043;SDS011;51680;49.806;18.774;2024-03-06T09:54:41;42.30;;;24.73;;
41043;SDS011;51680;49.806;18.774;2024-03-06T09:57:44;46.03;;;26.25;;
41043;SDS011;51680;49.806;18.774;2024-03-06T10:00:46;53.40;;;26.02;;
41043;SDS011;51680;49.806;18.774;2024-03-06T10:03:49;47.13;;;26.20;;
41043;SDS011;51680;49.806;18.774;2024-03-06T10:06:52;58.95;;;36.58;;
41043;SDS011;51680;49.806;18.774;2024-03-06T10:09:55;51.28;;;28.58;;
41043;SDS011;51680;49.806;18.774;2024-03-06T10:12:58;48.60;;;28.05;;
41043;SDS011;51680;49.806;18.774;2024-03-06T10:16:00;48.13;;;27.20;;
41043;SDS011;51680;49.806;18.774;2024-03-06T10:19:16;48.35;;;26.85;;
41043;SDS011;51680;49.806;18.774;2024-03-06T10:22:19;49.80;;;27.75;;
41043;SDS011;51680;49.806;18.774;2024-03-06T10:25:21;52.15;;;26.88;;
41043;SDS011;51680;49.806;18.774;2024-03-06T10:28:25;45.40;;;25.77;;
41043;SDS011;51680;49.806;18.774;2024-03-06T10:31:28;49.60;;;28.08;;
41043;SDS011;51680;49.806;18.774;2024-03-06T10:34:30;52.78;;;30.27;;
41043;SDS011;51680;49.806;18.774;2024-03-06T10:37:32;52.40;;;29.05;;
41043;SDS011;51680;49.806;18.774;2024-03-06T10:40:35;47.30;;;27.90;;
41043;SDS011;51680;49.806;18.774;2024-03-06T10:43:39;53.17;;;28.93;;
41043;SDS011;51680;49.806;18.774;2024-03-06T10:46:43;62.15;;;33.15;;
41043;SDS011;51680;49.806;18.774;2024-03-06T10:52:49;51.80;;;29.95;;
41043;SDS011;51680;49.806;18.774;2024-03-06T10:55:55;61.80;;;32.17;;
41043;SDS011;51680;49.806;18.774;2024-03-06T10:59:01;56.60;;;31.08;;
41043;SDS011;51680;49.806;18.774;2024-03-06T11:02:03;66.07;;;33.05;;
41043;SDS011;51680;49.806;18.774;2024-03-06T11:05:05;73.03;;;35.38;;
41043;SDS011;51680;49.806;18.774;2024-03-06T11:08:10;63.78;;;30.08;;
41043;SDS011;51680;49.806;18.774;2024-03-06T11:11:19;50.33;;;27.30;;
41043;SDS011;51680;49.806;18.774;2024-03-06T11:14:23;50.80;;;26.80;;
41043;SDS011;51680;49.806;18.774;2024-03-06T11:17:26;49.70;;;27.48;;
41043;SDS011;51680;49.806;18.774;2024-03-06T11:20:28;49.22;;;26.85;;
41043;SDS011;51680;49.806;18.774;2024-03-06T11:23:34;46.97;;;25.35;;
41043;SDS011;51680;49.806;18.774;2024-03-06T11:26:59;44.20;;;23.35;;
41043;SDS011;51680;49.806;18.774;2024-03-06T11:30:10;44.90;;;25.65;;
41043;SDS011;51680;49.806;18.774;2024-03-06T11:33:14;47.60;;;26.63;;
41043;SDS011;51680;49.806;18.774;2024-03-06T11:36:18;47.10;;;26.40;;
41043;SDS011;51680;49.806;18.774;2024-03-06T11:42:33;45.92;;;26.23;;
41043;SDS011;51680;49.806;18.774;2024-03-06T11:45:43;45.90;;;25.58;;
41043;SDS011;51680;49.806;18.774;2024-03-06T11:48:51;46.72;;;27.15;;
41043;SDS011;51680;49.806;18.774;2024-03-06T11:51:55;50.50;;;29.13;;
41043;SDS011;51680;49.806;18.774;2024-03-06T11:54:58;48.08;;;26.50;;
41043;SDS011;51680;49.806;18.774;2024-03-06T11:58:01;51.53;;;28.75;;
41043;SDS011;51680;49.806;18.774;2024-03-06T12:01:03;45.67;;;26.35;;
41043;SDS011;51680;49.806;18.774;2024-03-06T12:04:06;49.45;;;27.15;;
41043;SDS011;51680;49.806;18.774;2024-03-06T12:07:08;61.55;;;30.00;;
41043;SDS011;51680;49.806;18.774;2024-03-06T12:10:10;54.72;;;30.38;;
41043;SDS011;51680;49.806;18.774;2024-03-06T12:13:13;67.15;;;46.58;;
41043;SDS011;51680;49.806;18.774;2024-03-06T12:16:15;52.00;;;27.42;;
41043;SDS011;51680;49.806;18.774;2024-03-06T12:19:17;43.92;;;24.75;;
41043;SDS011;51680;49.806;18.774;2024-03-06T12:22:24;43.40;;;24.13;;
41043;SDS011;51680;49.806;18.774;2024-03-06T12:25:26;46.20;;;24.17;;
41043;SDS011;51680;49.806;18.774;2024-03-06T12:28:29;46.22;;;25.45;;
41043;SDS011;51680;49.806;18.774;2024-03-06T12:31:31;43.05;;;24.98;;
41043;SDS011;51680;49.806;18.774;2024-03-06T12:34:34;47.97;;;28.58;;
41043;SDS011;51680;49.806;18.774;2024-03-06T12:37:37;51.72;;;30.65;;
41043;SDS011;51680;49.806;18.774;2024-03-06T12:40:39;51.90;;;28.02;;
41043;SDS011;51680;49.806;18.774;2024-03-06T12:43:42;46.33;;;27.73;;
41043;SDS011;51680;49.806;18.774;2024-03-06T12:46:44;40.25;;;24.25;;
41043;SDS011;51680;49.806;18.774;2024-03-06T12:49:45;35.72;;;19.60;;
41043;SDS011;51680;49.806;18.774;2024-03-06T12:52:48;42.03;;;21.10;;
41043;SDS011;51680;49.806;18.774;2024-03-06T12:55:50;37.17;;;22.10;;
41043;SDS011;51680;49.806;18.774;2024-03-06T12:58:53;34.45;;;20.77;;
41043;SDS011;51680;49.806;18.774;2024-03-06T13:01:55;40.40;;;21.95;;
41043;SDS011;51680;49.806;18.774;2024-03-06T13:04:57;42.00;;;22.35;;
41043;SDS011;51680;49.806;18.774;2024-03-06T13:08:00;39.28;;;22.17;;
41043;SDS011;51680;49.806;18.774;2024-03-06T13:11:02;35.95;;;21.10;;
41043;SDS011;51680;49.806;18.774;2024-03-06T13:14:05;39.08;;;22.42;;
41043;SDS011;51680;49.806;18.774;2024-03-06T13:17:10;36.72;;;21.50;;
41043;SDS011;51680;49.806;18.774;2024-03-06T13:20:12;39.42;;;21.95;;
41043;SDS011;51680;49.806;18.774;2024-03-06T13:23:15;35.40;;;20.40;;
41043;SDS011;51680;49.806;18.774;2024-03-06T13:26:17;36.58;;;20.90;;
41043;SDS011;51680;49.806;18.774;2024-03-06T13:29:21;35.55;;;21.80;;
41043;SDS011;51680;49.806;18.774;2024-03-06T13:32:22;37.50;;;21.92;;
41043;SDS011;51680;49.806;18.774;2024-03-06T13:35:24;42.58;;;22.30;;
41043;SDS011;51680;49.806;18.774;2024-03-06T13:38:26;42.13;;;23.48;;
41043;SDS011;51680;49.806;18.774;2024-03-06T13:41:28;39.47;;;22.17;;
41043;SDS011;51680;49.806;18.774;2024-03-06T13:44:32;37.72;;;22.35;;
41043;SDS011;51680;49.806;18.774;2024-03-06T13:47:34;38.00;;;21.45;;
41043;SDS011;51680;49.806;18.774;2024-03-06T13:50:36;40.90;;;21.40;;
41043;SDS011;51680;49.806;18.774;2024-03-06T13:53:38;39.53;;;22.80;;
41043;SDS011;51680;49.806;18.774;2024-03-06T13:56:40;38.33;;;21.55;;
41043;SDS011;51680;49.806;18.774;2024-03-06T13:59:43;38.42;;;21.65;;
41043;SDS011;51680;49.806;18.774;2024-03-06T14:02:45;38.55;;;22.15;;
41043;SDS011;51680;49.806;18.774;2024-03-06T14:05:47;37.85;;;22.10;;
41043;SDS011;51680;49.806;18.774;2024-03-06T14:08:49;41.92;;;24.73;;
41043;SDS011;51680;49.806;18.774;2024-03-06T14:11:52;49.05;;;25.42;;
41043;SDS011;51680;49.806;18.774;2024-03-06T14:14:56;43.22;;;23.48;;
41043;SDS011;51680;49.806;18.774;2024-03-06T14:17:58;40.53;;;23.35;;
41043;SDS011;51680;49.806;18.774;2024-03-06T14:21:01;42.60;;;23.98;;
41043;SDS011;51680;49.806;18.774;2024-03-06T14:24:03;45.80;;;25.60;;
41043;SDS011;51680;49.806;18.774;2024-03-06T14:27:06;45.35;;;25.55;;
41043;SDS011;51680;49.806;18.774;2024-03-06T14:30:10;59.53;;;30.30;;
41043;SDS011;51680;49.806;18.774;2024-03-06T14:33:12;47.10;;;25.58;;
41043;SDS011;51680;49.806;18.774;2024-03-06T14:36:14;50.47;;;28.50;;
41043;SDS011;51680;49.806;18.774;2024-03-06T14:39:16;51.00;;;29.58;;
41043;SDS011;51680;49.806;18.774;2024-03-06T14:42:18;49.35;;;27.75;;
41043;SDS011;51680;49.806;18.774;2024-03-06T14:45:21;51.45;;;29.88;;
41043;SDS011;51680;49.806;18.774;2024-03-06T14:48:23;50.90;;;29.90;;
41043;SDS011;51680;49.806;18.774;2024-03-06T14:51:25;54.33;;;28.92;;
41043;SDS011;51680;49.806;18.774;2024-03-06T14:54:27;50.22;;;27.25;;
41043;SDS011;51680;49.806;18.774;2024-03-06T14:57:29;47.50;;;26.00;;
41043;SDS011;51680;49.806;18.774;2024-03-06T15:00:32;47.63;;;23.83;;
41043;SDS011;51680;49.806;18.774;2024-03-06T15:03:34;51.08;;;26.92;;
41043;SDS011;51680;49.806;18.774;2024-03-06T15:06:37;45.80;;;24.00;;
41043;SDS011;51680;49.806;18.774;2024-03-06T15:09:38;43.03;;;24.92;;
41043;SDS011;51680;49.806;18.774;2024-03-06T15:12:40;43.67;;;23.25;;
41043;SDS011;51680;49.806;18.774;2024-03-06T15:15:44;44.90;;;25.33;;
41043;SDS011;51680;49.806;18.774;2024-03-06T15:18:46;48.65;;;27.58;;
41043;SDS011;51680;49.806;18.774;2024-03-06T15:21:49;48.05;;;28.88;;
41043;SDS011;51680;49.806;18.774;2024-03-06T15:24:50;61.50;;;34.60;;
41043;SDS011;51680;49.806;18.774;2024-03-06T15:27:52;153.15;;;85.30;;
41043;SDS011;51680;49.806;18.774;2024-03-06T15:30:55;206.82;;;117.70;;
41043;SDS011;51680;49.806;18.774;2024-03-06T15:33:57;76.60;;;45.30;;
41043;SDS011;51680;49.806;18.774;2024-03-06T15:36:59;88.13;;;52.70;;
41043;SDS011;51680;49.806;18.774;2024-03-06T15:40:01;78.57;;;37.38;;
41043;SDS011;51680;49.806;18.774;2024-03-06T15:43:06;53.97;;;34.83;;
41043;SDS011;51680;49.806;18.774;2024-03-06T15:46:10;93.30;;;54.13;;
41043;SDS011;51680;49.806;18.774;2024-03-06T15:49:18;70.70;;;32.35;;
41043;SDS011;51680;49.806;18.774;2024-03-06T15:52:21;39.83;;;22.50;;
41043;SDS011;51680;49.806;18.774;2024-03-06T15:55:23;35.45;;;22.02;;
41043;SDS011;51680;49.806;18.774;2024-03-06T15:58:25;43.95;;;25.25;;
41043;SDS011;51680;49.806;18.774;2024-03-06T16:01:28;37.75;;;21.75;;
41043;SDS011;51680;49.806;18.774;2024-03-06T16:04:30;29.58;;;19.63;;
41043;SDS011;51680;49.806;18.774;2024-03-06T16:07:32;27.08;;;17.35;;
41043;SDS011;51680;49.806;18.774;2024-03-06T16:10:34;32.90;;;19.50;;
41043;SDS011;51680;49.806;18.774;2024-03-06T16:13:36;64.03;;;27.40;;
41043;SDS011;51680;49.806;18.774;2024-03-06T16:16:40;60.33;;;22.23;;
41043;SDS011;51680;49.806;18.774;2024-03-06T16:19:42;47.05;;;25.02;;
41043;SDS011;51680;49.806;18.774;2024-03-06T16:22:44;63.63;;;21.75;;
41043;SDS011;51680;49.806;18.774;2024-03-06T16:25:46;63.05;;;26.40;;
41043;SDS011;51680;49.806;18.774;2024-03-06T16:28:48;45.42;;;28.95;;
41043;SDS011;51680;49.806;18.774;2024-03-06T16:31:51;41.15;;;23.20;;
41043;SDS011;51680;49.806;18.774;2024-03-06T16:34:53;32.55;;;18.13;;
41043;SDS011;51680;49.806;18.774;2024-03-06T16:37:55;33.95;;;19.00;;
41043;SDS011;51680;49.806;18.774;2024-03-06T16:40:57;39.10;;;23.80;;
41043;SDS011;51680;49.806;18.774;2024-03-06T16:43:59;32.03;;;18.20;;
41043;SDS011;51680;49.806;18.774;2024-03-06T16:47:02;38.85;;;22.42;;
41043;SDS011;51680;49.806;18.774;2024-03-06T16:50:05;60.42;;;25.83;;
41043;SDS011;51680;49.806;18.774;2024-03-06T16:53:07;55.92;;;22.75;;
41043;SDS011;51680;49.806;18.774;2024-03-06T16:56:09;39.42;;;20.63;;
41043;SDS011;51680;49.806;18.774;2024-03-06T16:59:11;65.57;;;26.75;;
41043;SDS011;51680;49.806;18.774;2024-03-06T17:02:14;114.95;;;33.38;;
41043;SDS011;51680;49.806;18.774;2024-03-06T17:05:16;84.05;;;34.90;;
41043;SDS011;51680;49.806;18.774;2024-03-06T17:08:18;34.97;;;19.67;;
41043;SDS011;51680;49.806;18.774;2024-03-06T17:11:20;91.68;;;38.53;;
41043;SDS011;51680;49.806;18.774;2024-03-06T17:14:22;206.50;;;73.05;;
41043;SDS011;51680;49.806;18.774;2024-03-06T17:17:25;167.45;;;63.78;;
41043;SDS011;51680;49.806;18.774;2024-03-06T17:20:27;133.38;;;51.55;;
41043;SDS011;51680;49.806;18.774;2024-03-06T17:23:29;60.05;;;23.25;;
41043;SDS011;51680;49.806;18.774;2024-03-06T17:26:31;310.17;;;102.72;;
41043;SDS011;51680;49.806;18.774;2024-03-06T17:29:37;64.80;;;29.40;;
41043;SDS011;51680;49.806;18.774;2024-03-06T17:32:40;186.65;;;67.75;;
41043;SDS011;51680;49.806;18.774;2024-03-06T17:35:43;173.00;;;66.00;;
41043;SDS011;51680;49.806;18.774;2024-03-06T17:38:45;47.92;;;24.73;;
41043;SDS011;51680;49.806;18.774;2024-03-06T17:41:48;45.63;;;23.38;;